sensor_id;sensor_type;location;lat;lon;timestamp;pressure;altitude;pressure_sealevel;temperature;humidity
49813;BME280;35706;52.100;5.056;2023-09-19T00:00:40;100613.66;;;15.27;100.00
49813;BME280;35706;52.100;5.056;2023-09-19T00:01:42;100608.22;;;15.29;100.00
49813;BME280;35706;52.100;5.056;2023-09-19T00:02:51;100615.50;;;15.27;100.00
49813;BME280;35706;52.100;5.056;2023-09-19T00:03:52;100614.66;;;15.35;100.00
49813;BME280;35706;52.100;5.056;2023-09-19T00:04:53;100610.66;;;15.62;100.00
49813;BME280;35706;52.100;5.056;2023-09-19T00:05:53;100607.38;;;15.60;99.88
49813;BME280;35706;52.100;5.056;2023-09-19T00:06:55;100613.06;;;15.48;100.00
49813;BME280;35706;52.100;5.056;2023-09-19T00:07:57;100608.44;;;15.51;100.00
49813;BME280;35706;52.100;5.056;2023-09-19T00:09:00;100612.13;;;15.41;100.00
49813;BME280;35706;52.100;5.056;2023-09-19T00:10:00;100618.44;;;15.32;100.00
49813;BME280;35706;52.100;5.056;2023-09-19T00:11:01;100612.69;;;15.29;100.00
49813;BME280;35706;52.100;5.056;2023-09-19T00:12:06;100621.06;;;15.40;100.00
49813;BME280;35706;52.100;5.056;2023-09-19T00:13:07;100612.03;;;15.26;100.00
49813;BME280;35706;52.100;5.056;2023-09-19T00:14:09;100613.09;;;15.40;100.00
49813;BME280;35706;52.100;5.056;2023-09-19T00:15:09;100619.13;;;15.26;100.00
49813;BME280;35706;52.100;5.056;2023-09-19T00:16:11;100618.19;;;15.50;100.00
49813;BME280;35706;52.100;5.056;2023-09-19T00:17:12;100615.47;;;15.35;100.00
49813;BME280;35706;52.100;5.056;2023-09-19T00:18:12;100618.72;;;15.45;100.00
49813;BME280;35706;52.100;5.056;2023-09-19T00:19:15;100617.72;;;15.46;100.00
49813;BME280;35706;52.100;5.056;2023-09-19T00:20:16;100614.41;;;15.44;100.00
49813;BME280;35706;52.100;5.056;2023-09-19T00:21:17;100617.22;;;15.43;100.00
49813;BME280;35706;52.100;5.056;2023-09-19T00:22:19;100625.59;;;15.23;100.00
49813;BME280;35706;52.100;5.056;2023-09-19T00:23:20;100616.00;;;15.31;100.00
49813;BME280;35706;52.100;5.056;2023-09-19T00:24:20;100609.81;;;15.38;100.00
49813;BME280;35706;52.100;5.056;2023-09-19T00:25:21;100618.03;;;15.52;100.00
49813;BME280;35706;52.100;5.056;2023-09-19T00:26:21;100621.34;;;15.54;100.00
49813;BME280;35706;52.100;5.056;2023-09-19T00:27:22;100618.94;;;15.67;100.00
49813;BME280;35706;52.100;5.056;2023-09-19T00:28:22;100620.41;;;15.38;100.00
49813;BME280;35706;52.100;5.056;2023-09-19T00:29:22;100622.66;;;15.58;100.00
49813;BME280;35706;52.100;5.056;2023-09-19T00:30:23;100628.81;;;15.50;100.00
49813;BME280;35706;52.100;5.056;2023-09-19T00:31:24;100626.69;;;15.45;100.00
49813;BME280;35706;52.100;5.056;2023-09-19T00:32:25;100624.72;;;15.71;100.00
49813;BME280;35706;52.100;5.056;2023-09-19T00:33:31;100625.34;;;15.50;100.00
49813;BME280;35706;52.100;5.056;2023-09-19T00:34:31;100625.78;;;15.53;100.00
49813;BME280;35706;52.100;5.056;2023-09-19T00:35:34;100624.31;;;15.51;100.00
49813;BME280;35706;52.100;5.056;2023-09-19T00:36:34;100623.13;;;15.53;100.00
49813;BME280;35706;52.100;5.056;2023-09-19T00:37:35;100634.06;;;15.58;100.00
49813;BME280;35706;52.100;5.056;2023-09-19T00:38:35;100628.16;;;15.48;100.00
49813;BME280;35706;52.100;5.056;2023-09-19T00:39:36;100627.97;;;15.50;100.00
49813;BME280;35706;52.100;5.056;2023-09-19T00:40:37;100627.50;;;15.46;100.00
49813;BME280;35706;52.100;5.056;2023-09-19T00:41:37;100639.44;;;15.42;100.00
49813;BME280;35706;52.100;5.056;2023-09-19T00:42:39;100632.53;;;15.33;100.00
49813;BME280;35706;52.100;5.056;2023-09-19T00:43:40;100633.84;;;15.60;99.91
49813;BME280;35706;52.100;5.056;2023-09-19T00:44:41;100629.53;;;15.75;99.26
49813;BME280;35706;52.100;5.056;2023-09-19T00:45:46;100629.28;;;15.54;99.65
49813;BME280;35706;52.100;5.056;2023-09-19T00:46:48;100626.63;;;15.54;99.41
49813;BME280;35706;52.100;5.056;2023-09-19T00:47:51;100635.53;;;15.61;99.41
49813;BME280;35706;52.100;5.056;2023-09-19T00:48:51;100633.00;;;15.67;98.99
49813;BME280;35706;52.100;5.056;2023-09-19T00:49:51;100638.22;;;15.53;99.23
49813;BME280;35706;52.100;5.056;2023-09-19T00:50:53;100636.34;;;15.61;98.81
49813;BME280;35706;52.100;5.056;2023-09-19T00:51:54;100637.69;;;15.57;99.48
49813;BME280;35706;52.100;5.056;2023-09-19T00:52:55;100645.75;;;15.41;99.68
49813;BME280;35706;52.100;5.056;2023-09-19T00:53:59;100643.69;;;15.51;99.77
49813;BME280;35706;52.100;5.056;2023-09-19T00:54:59;100645.63;;;15.57;99.17
49813;BME280;35706;52.100;5.056;2023-09-19T00:56:03;100645.19;;;15.54;99.05
49813;BME280;35706;52.100;5.056;2023-09-19T00:57:08;100641.34;;;15.56;98.94
49813;BME280;35706;52.100;5.056;2023-09-19T00:58:09;100640.78;;;15.38;99.60
49813;BME280;35706;52.100;5.056;2023-09-19T00:59:10;100644.25;;;15.30;100.00
49813;BME280;35706;52.100;5.056;2023-09-19T01:00:12;100642.72;;;15.44;99.50
49813;BME280;35706;52.100;5.056;2023-09-19T01:01:15;100646.19;;;15.44;99.07
49813;BME280;35706;52.100;5.056;2023-09-19T01:02:17;100646.94;;;15.61;98.82
49813;BME280;35706;52.100;5.056;2023-09-19T01:03:17;100646.13;;;15.61;97.99
49813;BME280;35706;52.100;5.056;2023-09-19T01:04:18;100648.84;;;15.44;98.02
49813;BME280;35706;52.100;5.056;2023-09-19T01:05:18;100644.69;;;15.50;97.88
49813;BME280;35706;52.100;5.056;2023-09-19T01:06:19;100641.41;;;15.40;98.32
49813;BME280;35706;52.100;5.056;2023-09-19T01:07:19;100645.47;;;15.59;97.26
49813;BME280;35706;52.100;5.056;2023-09-19T01:08:21;100641.03;;;15.51;97.51
49813;BME280;35706;52.100;5.056;2023-09-19T01:09:21;100645.31;;;15.60;96.98
49813;BME280;35706;52.100;5.056;2023-09-19T01:10:22;100639.72;;;15.47;97.56
49813;BME280;35706;52.100;5.056;2023-09-19T01:11:35;100643.59;;;15.36;98.53
49813;BME280;35706;52.100;5.056;2023-09-19T01:13:58;100649.50;;;15.46;98.75
49813;BME280;35706;52.100;5.056;2023-09-19T01:15:09;100642.16;;;15.57;98.66
49813;BME280;35706;52.100;5.056;2023-09-19T01:16:21;100638.66;;;15.73;97.51
49813;BME280;35706;52.100;5.056;2023-09-19T01:17:32;100645.63;;;15.57;97.66
49813;BME280;35706;52.100;5.056;2023-09-19T01:18:52;100644.13;;;15.63;97.33
49813;BME280;35706;52.100;5.056;2023-09-19T01:20:19;100643.06;;;15.80;95.85
49813;BME280;35706;52.100;5.056;2023-09-19T01:21:34;100650.81;;;15.51;96.57
49813;BME280;35706;52.100;5.056;2023-09-19T01:23:04;100642.78;;;15.75;94.72
49813;BME280;35706;52.100;5.056;2023-09-19T01:29:17;100647.34;;;15.50;93.46
49813;BME280;35706;52.100;5.056;2023-09-19T01:30:32;100646.34;;;15.43;93.03
49813;BME280;35706;52.100;5.056;2023-09-19T01:31:37;100641.47;;;15.63;92.58
49813;BME280;35706;52.100;5.056;2023-09-19T01:32:38;100653.63;;;15.49;92.24
49813;BME280;35706;52.100;5.056;2023-09-19T01:34:01;100641.59;;;15.38;91.23
49813;BME280;35706;52.100;5.056;2023-09-19T01:35:04;100644.44;;;15.37;91.37
49813;BME280;35706;52.100;5.056;2023-09-19T01:36:05;100654.31;;;15.43;91.01
49813;BME280;35706;52.100;5.056;2023-09-19T01:37:05;100649.50;;;15.46;90.75
49813;BME280;35706;52.100;5.056;2023-09-19T01:38:06;100656.88;;;15.59;90.29
49813;BME280;35706;52.100;5.056;2023-09-19T01:39:11;100663.75;;;15.45;90.07
49813;BME280;35706;52.100;5.056;2023-09-19T01:40:16;100667.72;;;15.50;90.31
49813;BME280;35706;52.100;5.056;2023-09-19T01:41:38;100657.31;;;15.40;90.05
49813;BME280;35706;52.100;5.056;2023-09-19T01:44:15;100663.97;;;15.27;90.11
49813;BME280;35706;52.100;5.056;2023-09-19T01:46:35;100660.31;;;15.37;90.33
49813;BME280;35706;52.100;5.056;2023-09-19T01:47:51;100666.75;;;15.34;90.55
49813;BME280;35706;52.100;5.056;2023-09-19T01:49:10;100666.59;;;15.36;90.64
49813;BME280;35706;52.100;5.056;2023-09-19T01:51:33;100674.09;;;15.24;90.53
49813;BME280;35706;52.100;5.056;2023-09-19T01:52:38;100665.41;;;15.46;90.19
49813;BME280;35706;52.100;5.056;2023-09-19T01:53:55;100670.84;;;15.45;90.27
49813;BME280;35706;52.100;5.056;2023-09-19T01:55:08;100675.56;;;15.35;90.72
49813;BME280;35706;52.100;5.056;2023-09-19T01:56:17;100674.59;;;15.19;92.04
49813;BME280;35706;52.100;5.056;2023-09-19T01:57:43;100669.75;;;15.31;90.97
49813;BME280;35706;52.100;5.056;2023-09-19T01:58:48;100677.88;;;15.30;91.02
49813;BME280;35706;52.100;5.056;2023-09-19T01:59:53;100663.47;;;15.32;90.77
49813;BME280;35706;52.100;5.056;2023-09-19T02:00:58;100676.09;;;15.22;91.94
49813;BME280;35706;52.100;5.056;2023-09-19T02:02:00;100666.66;;;15.19;92.07
49813;BME280;35706;52.100;5.056;2023-09-19T02:03:02;100665.66;;;15.20;92.20
49813;BME280;35706;52.100;5.056;2023-09-19T02:04:04;100665.44;;;15.30;91.28
49813;BME280;35706;52.100;5.056;2023-09-19T02:05:04;100673.09;;;15.25;91.86
49813;BME280;35706;52.100;5.056;2023-09-19T02:06:06;100676.97;;;15.06;92.70
49813;BME280;35706;52.100;5.056;2023-09-19T02:07:11;100669.03;;;14.98;93.13
49813;BME280;35706;52.100;5.056;2023-09-19T02:08:12;100676.97;;;14.98;93.43
49813;BME280;35706;52.100;5.056;2023-09-19T02:09:16;100670.19;;;15.03;93.10
49813;BME280;35706;52.100;5.056;2023-09-19T02:10:16;100673.31;;;15.07;93.38
49813;BME280;35706;52.100;5.056;2023-09-19T02:11:17;100667.81;;;15.17;93.40
49813;BME280;35706;52.100;5.056;2023-09-19T02:12:17;100676.28;;;15.04;93.04
49813;BME280;35706;52.100;5.056;2023-09-19T02:13:22;100672.84;;;15.03;93.39
49813;BME280;35706;52.100;5.056;2023-09-19T02:14:26;100676.59;;;15.17;92.51
49813;BME280;35706;52.100;5.056;2023-09-19T02:15:27;100670.69;;;15.07;93.11
49813;BME280;35706;52.100;5.056;2023-09-19T02:16:27;100668.53;;;15.02;93.68
49813;BME280;35706;52.100;5.056;2023-09-19T02:17:29;100651.63;;;15.12;93.71
49813;BME280;35706;52.100;5.056;2023-09-19T02:18:31;100674.59;;;15.19;92.76
49813;BME280;35706;52.100;5.056;2023-09-19T02:19:31;100670.81;;;15.14;93.02
49813;BME280;35706;52.100;5.056;2023-09-19T02:20:32;100659.56;;;15.12;93.01
49813;BME280;35706;52.100;5.056;2023-09-19T02:21:33;100662.50;;;15.25;92.87
49813;BME280;35706;52.100;5.056;2023-09-19T02:22:33;100664.66;;;15.21;92.76
49813;BME280;35706;52.100;5.056;2023-09-19T02:23:34;100663.16;;;15.27;93.02
49813;BME280;35706;52.100;5.056;2023-09-19T02:24:34;100664.13;;;15.34;92.43
49813;BME280;35706;52.100;5.056;2023-09-19T02:25:35;100668.63;;;15.17;92.27
49813;BME280;35706;52.100;5.056;2023-09-19T02:26:35;100669.13;;;15.21;92.80
49813;BME280;35706;52.100;5.056;2023-09-19T02:27:36;100668.50;;;15.11;93.37
49813;BME280;35706;52.100;5.056;2023-09-19T02:28:37;100665.00;;;15.26;92.75
49813;BME280;35706;52.100;5.056;2023-09-19T02:29:37;100673.13;;;15.17;92.85
49813;BME280;35706;52.100;5.056;2023-09-19T02:30:38;100673.50;;;15.05;93.40
49813;BME280;35706;52.100;5.056;2023-09-19T02:31:38;100674.47;;;14.96;93.74
49813;BME280;35706;52.100;5.056;2023-09-19T02:32:39;100673.81;;;15.02;93.95
49813;BME280;35706;52.100;5.056;2023-09-19T02:33:39;100677.47;;;14.93;93.89
49813;BME280;35706;52.100;5.056;2023-09-19T02:34:40;100683.59;;;14.94;94.19
49813;BME280;35706;52.100;5.056;2023-09-19T02:35:40;100678.13;;;15.03;93.64
49813;BME280;35706;52.100;5.056;2023-09-19T02:36:40;100662.41;;;14.94;94.29
49813;BME280;35706;52.100;5.056;2023-09-19T02:37:41;100674.97;;;15.08;93.54
49813;BME280;35706;52.100;5.056;2023-09-19T02:38:41;100669.31;;;15.11;93.33
49813;BME280;35706;52.100;5.056;2023-09-19T02:39:41;100675.28;;;15.13;93.12
49813;BME280;35706;52.100;5.056;2023-09-19T02:40:42;100670.31;;;15.10;93.22
49813;BME280;35706;52.100;5.056;2023-09-19T02:41:43;100677.13;;;14.96;94.00
49813;BME280;35706;52.100;5.056;2023-09-19T02:42:45;100677.97;;;15.05;93.01
49813;BME280;35706;52.100;5.056;2023-09-19T02:43:47;100671.50;;;14.99;92.97
49813;BME280;35706;52.100;5.056;2023-09-19T02:44:47;100676.97;;;14.98;93.24
49813;BME280;35706;52.100;5.056;2023-09-19T02:45:49;100681.44;;;14.97;93.45
49813;BME280;35706;52.100;5.056;2023-09-19T02:46:56;100674.47;;;14.96;93.75
49813;BME280;35706;52.100;5.056;2023-09-19T02:47:57;100676.13;;;15.14;93.08
49813;BME280;35706;52.100;5.056;2023-09-19T02:48:58;100684.91;;;14.98;93.02
49813;BME280;35706;52.100;5.056;2023-09-19T02:49:58;100686.44;;;14.84;93.44
49813;BME280;35706;52.100;5.056;2023-09-19T02:50:58;100685.91;;;14.97;93.54
49813;BME280;35706;52.100;5.056;2023-09-19T02:51:59;100686.44;;;14.84;94.05
49813;BME280;35706;52.100;5.056;2023-09-19T02:52:59;100689.09;;;14.68;94.86
49813;BME280;35706;52.100;5.056;2023-09-19T02:54:00;100676.53;;;14.70;95.06
49813;BME280;35706;52.100;5.056;2023-09-19T02:55:00;100682.31;;;14.73;95.16
49813;BME280;35706;52.100;5.056;2023-09-19T02:56:01;100676.69;;;14.76;94.77
49813;BME280;35706;52.100;5.056;2023-09-19T02:57:01;100673.22;;;14.84;94.28
49813;BME280;35706;52.100;5.056;2023-09-19T02:58:03;100674.72;;;14.62;95.22
49813;BME280;35706;52.100;5.056;2023-09-19T02:59:05;100683.81;;;14.68;94.92
49813;BME280;35706;52.100;5.056;2023-09-19T03:00:07;100682.13;;;14.75;95.11
49813;BME280;35706;52.100;5.056;2023-09-19T03:01:10;100680.47;;;14.90;94.18
49813;BME280;35706;52.100;5.056;2023-09-19T03:02:12;100674.69;;;14.70;94.74
49813;BME280;35706;52.100;5.056;2023-09-19T03:03:12;100683.16;;;14.65;95.48
49813;BME280;35706;52.100;5.056;2023-09-19T03:04:14;100689.09;;;14.59;95.89
49813;BME280;35706;52.100;5.056;2023-09-19T03:05:20;100687.78;;;14.63;95.84
49813;BME280;35706;52.100;5.056;2023-09-19T03:06:21;100682.78;;;14.69;95.80
49813;BME280;35706;52.100;5.056;2023-09-19T03:07:22;100675.50;;;14.79;95.59
49813;BME280;35706;52.100;5.056;2023-09-19T03:08:22;100675.53;;;14.71;95.76
49813;BME280;35706;52.100;5.056;2023-09-19T03:09:23;100678.50;;;14.76;96.01
49813;BME280;35706;52.100;5.056;2023-09-19T03:10:23;100683.81;;;14.68;96.29
49813;BME280;35706;52.100;5.056;2023-09-19T03:11:24;100679.69;;;14.73;96.67
49813;BME280;35706;52.100;5.056;2023-09-19T03:12:28;100671.91;;;14.72;96.81
49813;BME280;35706;52.100;5.056;2023-09-19T03:13:28;100672.22;;;14.77;95.78
49813;BME280;35706;52.100;5.056;2023-09-19T03:14:31;100671.22;;;14.86;95.60
49813;BME280;35706;52.100;5.056;2023-09-19T03:15:35;100675.06;;;14.67;96.45
49813;BME280;35706;52.100;5.056;2023-09-19T03:16:38;100668.41;;;14.79;95.79
49813;BME280;35706;52.100;5.056;2023-09-19T03:17:46;100685.44;;;14.60;97.06
49813;BME280;35706;52.100;5.056;2023-09-19T03:18:52;100693.06;;;14.55;97.26
49813;BME280;35706;52.100;5.056;2023-09-19T03:19:52;100685.13;;;14.55;97.22
49813;BME280;35706;52.100;5.056;2023-09-19T03:20:55;100676.69;;;14.68;96.81
49813;BME280;35706;52.100;5.056;2023-09-19T03:21:56;100677.34;;;14.78;96.35
49813;BME280;35706;52.100;5.056;2023-09-19T03:23:00;100684.44;;;14.86;95.79
49813;BME280;35706;52.100;5.056;2023-09-19T03:24:01;100682.94;;;14.92;95.65
49813;BME280;35706;52.100;5.056;2023-09-19T03:25:01;100672.19;;;14.85;95.49
49813;BME280;35706;52.100;5.056;2023-09-19T03:26:01;100675.69;;;14.77;95.91
49813;BME280;35706;52.100;5.056;2023-09-19T03:27:02;100675.34;;;14.89;95.51
49813;BME280;35706;52.100;5.056;2023-09-19T03:28:03;100673.53;;;14.81;95.55
49813;BME280;35706;52.100;5.056;2023-09-19T03:29:07;100680.81;;;14.71;95.90
49813;BME280;35706;52.100;5.056;2023-09-19T03:30:08;100670.75;;;14.66;95.93
49813;BME280;35706;52.100;5.056;2023-09-19T03:31:09;100671.56;;;14.75;95.17
49813;BME280;35706;52.100;5.056;2023-09-19T03:32:09;100665.25;;;14.51;95.99
49813;BME280;35706;52.100;5.056;2023-09-19T03:33:11;100664.94;;;14.62;96.07
49813;BME280;35706;52.100;5.056;2023-09-19T03:34:12;100674.69;;;14.86;95.04
49813;BME280;35706;52.100;5.056;2023-09-19T03:35:12;100663.47;;;14.68;95.31
49813;BME280;35706;52.100;5.056;2023-09-19T03:36:14;100669.91;;;14.74;95.25
49813;BME280;35706;52.100;5.056;2023-09-19T03:37:14;100678.53;;;14.59;95.31
49813;BME280;35706;52.100;5.056;2023-09-19T03:38:15;100665.13;;;14.61;95.17
49813;BME280;35706;52.100;5.056;2023-09-19T03:39:15;100682.13;;;14.66;95.26
49813;BME280;35706;52.100;5.056;2023-09-19T03:40:16;100660.00;;;14.76;94.65
49813;BME280;35706;52.100;5.056;2023-09-19T03:41:17;100654.53;;;14.69;94.79
49813;BME280;35706;52.100;5.056;2023-09-19T03:42:17;100663.75;;;14.81;94.79
49813;BME280;35706;52.100;5.056;2023-09-19T03:43:17;100675.19;;;14.82;94.25
49813;BME280;35706;52.100;5.056;2023-09-19T03:44:19;100675.22;;;14.57;95.39
49813;BME280;35706;52.100;5.056;2023-09-19T03:45:19;100677.19;;;14.63;95.54
49813;BME280;35706;52.100;5.056;2023-09-19T03:46:19;100669.91;;;14.65;95.40
49813;BME280;35706;52.100;5.056;2023-09-19T03:47:20;100679.03;;;14.63;95.40
49813;BME280;35706;52.100;5.056;2023-09-19T03:48:20;100670.75;;;14.66;95.29
49813;BME280;35706;52.100;5.056;2023-09-19T03:49:21;100667.28;;;14.65;94.74
49813;BME280;35706;52.100;5.056;2023-09-19T03:50:22;100671.59;;;14.58;94.95
49813;BME280;35706;52.100;5.056;2023-09-19T03:51:22;100669.91;;;14.57;95.59
49813;BME280;35706;52.100;5.056;2023-09-19T03:52:23;100679.97;;;14.54;95.24
49813;BME280;35706;52.100;5.056;2023-09-19T03:53:25;100670.91;;;14.48;95.54
49813;BME280;35706;52.100;5.056;2023-09-19T03:54:25;100674.00;;;14.52;95.45
49813;BME280;35706;52.100;5.056;2023-09-19T03:55:25;100675.22;;;14.65;94.99
49813;BME280;35706;52.100;5.056;2023-09-19T03:56:27;100704.97;;;14.59;94.34
49813;BME280;35706;52.100;5.056;2023-09-19T03:57:28;100685.78;;;14.57;94.22
49813;BME280;35706;52.100;5.056;2023-09-19T03:58:29;100682.13;;;14.66;94.16
49813;BME280;35706;52.100;5.056;2023-09-19T03:59:29;100691.25;;;14.64;94.37
49813;BME280;35706;52.100;5.056;2023-09-19T04:00:29;100695.72;;;14.72;94.42
49813;BME280;35706;52.100;5.056;2023-09-19T04:01:30;100688.75;;;14.71;93.61
49813;BME280;35706;52.100;5.056;2023-09-19T04:02:34;100695.56;;;14.57;93.94
49813;BME280;35706;52.100;5.056;2023-09-19T04:03:35;100701.13;;;14.54;94.79
49813;BME280;35706;52.100;5.056;2023-09-19T04:04:45;100702.94;;;14.45;94.89
49813;BME280;35706;52.100;5.056;2023-09-19T04:05:46;100703.09;;;14.52;94.36
49813;BME280;35706;52.100;5.056;2023-09-19T04:06:49;100687.75;;;14.47;94.44
49813;BME280;35706;52.100;5.056;2023-09-19T04:07:50;100708.72;;;14.40;94.82
49813;BME280;35706;52.100;5.056;2023-09-19T04:08:50;100706.59;;;14.52;94.51
49813;BME280;35706;52.100;5.056;2023-09-19T04:09:50;100708.94;;;14.55;93.93
49813;BME280;35706;52.100;5.056;2023-09-19T04:10:53;100694.72;;;14.56;93.67
49813;BME280;35706;52.100;5.056;2023-09-19T04:11:53;100699.63;;;14.43;94.17
49813;BME280;35706;52.100;5.056;2023-09-19T04:12:55;100713.25;;;14.56;93.78
49813;BME280;35706;52.100;5.056;2023-09-19T04:13:55;100705.59;;;14.53;94.14
49813;BME280;35706;52.100;5.056;2023-09-19T04:14:55;100708.09;;;14.55;93.99
49813;BME280;35706;52.100;5.056;2023-09-19T04:15:56;100720.50;;;14.54;93.69
49813;BME280;35706;52.100;5.056;2023-09-19T04:16:56;100705.63;;;14.61;93.33
49813;BME280;35706;52.100;5.056;2023-09-19T04:17:57;100718.84;;;14.61;93.32
49813;BME280;35706;52.100;5.056;2023-09-19T04:18:57;100704.47;;;14.72;93.09
49813;BME280;35706;52.100;5.056;2023-09-19T04:19:57;100707.13;;;14.72;92.76
49813;BME280;35706;52.100;5.056;2023-09-19T04:20:57;100711.75;;;14.70;92.77
49813;BME280;35706;52.100;5.056;2023-09-19T04:21:58;100718.50;;;14.64;92.62
49813;BME280;35706;52.100;5.056;2023-09-19T04:22:58;100712.75;;;14.61;93.25
49813;BME280;35706;52.100;5.056;2023-09-19T04:24:00;100720.69;;;14.61;92.99
49813;BME280;35706;52.100;5.056;2023-09-19T04:25:00;100719.50;;;14.55;93.01
49813;BME280;35706;52.100;5.056;2023-09-19T04:26:00;100717.34;;;14.51;93.45
49813;BME280;35706;52.100;5.056;2023-09-19T04:27:01;100725.94;;;14.53;93.68
49813;BME280;35706;52.100;5.056;2023-09-19T04:28:01;100721.78;;;14.34;94.07
49813;BME280;35706;52.100;5.056;2023-09-19T04:29:04;100724.09;;;14.37;94.68
49813;BME280;35706;52.100;5.056;2023-09-19T04:30:07;100711.22;;;14.42;94.30
49813;BME280;35706;52.100;5.056;2023-09-19T04:31:10;100726.47;;;14.56;93.65
49813;BME280;35706;52.100;5.056;2023-09-19T04:32:11;100727.56;;;14.45;93.94
49813;BME280;35706;52.100;5.056;2023-09-19T04:33:13;100723.13;;;14.46;93.36
49813;BME280;35706;52.100;5.056;2023-09-19T04:34:16;100727.91;;;14.42;93.70
49813;BME280;35706;52.100;5.056;2023-09-19T04:35:17;100736.16;;;14.31;93.94
49813;BME280;35706;52.100;5.056;2023-09-19T04:36:17;100731.53;;;14.33;94.38
49813;BME280;35706;52.100;5.056;2023-09-19T04:37:17;100731.53;;;14.25;94.60
49813;BME280;35706;52.100;5.056;2023-09-19T04:38:18;100735.03;;;14.42;94.35
49813;BME280;35706;52.100;5.056;2023-09-19T04:39:19;100736.00;;;14.41;94.37
49813;BME280;35706;52.100;5.056;2023-09-19T04:40:21;100723.59;;;14.50;94.00
49813;BME280;35706;52.100;5.056;2023-09-19T04:41:23;100735.00;;;14.34;94.68
49813;BME280;35706;52.100;5.056;2023-09-19T04:42:23;100730.41;;;14.44;94.57
49813;BME280;35706;52.100;5.056;2023-09-19T04:43:26;100733.69;;;14.38;94.86
49813;BME280;35706;52.100;5.056;2023-09-19T04:44:26;100731.38;;;14.43;94.50
49813;BME280;35706;52.100;5.056;2023-09-19T04:45:27;100725.78;;;14.46;94.47
49813;BME280;35706;52.100;5.056;2023-09-19T04:46:28;100730.72;;;14.49;94.67
49813;BME280;35706;52.100;5.056;2023-09-19T04:47:28;100727.59;;;14.37;94.88
49813;BME280;35706;52.100;5.056;2023-09-19T04:48:28;100738.97;;;14.38;95.10
49813;BME280;35706;52.100;5.056;2023-09-19T04:49:29;100728.41;;;14.46;94.71
49813;BME280;35706;52.100;5.056;2023-09-19T04:50:29;100730.38;;;14.36;95.17
49813;BME280;35706;52.100;5.056;2023-09-19T04:51:30;100722.97;;;14.56;94.20
49813;BME280;35706;52.100;5.056;2023-09-19T04:52:34;100725.31;;;14.59;94.07
49813;BME280;35706;52.100;5.056;2023-09-19T04:53:34;100724.81;;;14.55;94.31
49813;BME280;35706;52.100;5.056;2023-09-19T04:54:35;100721.16;;;14.48;94.48
49813;BME280;35706;52.100;5.056;2023-09-19T04:55:35;100730.41;;;14.52;94.86
49813;BME280;35706;52.100;5.056;2023-09-19T04:56:36;100730.22;;;14.45;94.67
49813;BME280;35706;52.100;5.056;2023-09-19T04:57:40;100720.13;;;14.33;95.46
49813;BME280;35706;52.100;5.056;2023-09-19T04:58:40;100725.25;;;14.34;95.67
49813;BME280;35706;52.100;5.056;2023-09-19T04:59:41;100748.72;;;14.45;94.94
49813;BME280;35706;52.100;5.056;2023-09-19T05:00:41;100730.22;;;14.37;95.65
49813;BME280;35706;52.100;5.056;2023-09-19T05:01:41;100732.38;;;14.50;94.78
49813;BME280;35706;52.100;5.056;2023-09-19T05:02:42;100731.06;;;14.46;95.35
49813;BME280;35706;52.100;5.056;2023-09-19T05:03:42;100733.03;;;14.36;95.95
49813;BME280;35706;52.100;5.056;2023-09-19T05:04:44;100729.72;;;14.42;95.88
49813;BME280;35706;52.100;5.056;2023-09-19T05:05:45;100725.47;;;14.57;95.32
49813;BME280;35706;52.100;5.056;2023-09-19T05:06:45;100724.59;;;14.32;96.03
49813;BME280;35706;52.100;5.056;2023-09-19T05:07:46;100729.56;;;14.27;96.37
49813;BME280;35706;52.100;5.056;2023-09-19T05:08:47;100734.00;;;14.35;96.54
49813;BME280;35706;52.100;5.056;2023-09-19T05:09:51;100726.09;;;14.27;96.68
49813;BME280;35706;52.100;5.056;2023-09-19T05:10:51;100737.31;;;14.20;97.41
49813;BME280;35706;52.100;5.056;2023-09-19T05:11:51;100734.66;;;14.12;97.64
49813;BME280;35706;52.100;5.056;2023-09-19T05:12:53;100725.91;;;14.28;97.39
49813;BME280;35706;52.100;5.056;2023-09-19T05:13:53;100730.03;;;14.31;97.29
49813;BME280;35706;52.100;5.056;2023-09-19T05:14:54;100732.88;;;14.37;97.08
49813;BME280;35706;52.100;5.056;2023-09-19T05:15:54;100735.97;;;14.33;97.14
49813;BME280;35706;52.100;5.056;2023-09-19T05:16:54;100744.59;;;14.43;96.93
49813;BME280;35706;52.100;5.056;2023-09-19T05:17:55;100743.75;;;14.34;97.10
49813;BME280;35706;52.100;5.056;2023-09-19T05:18:55;100738.16;;;14.54;96.29
49813;BME280;35706;52.100;5.056;2023-09-19T05:19:57;100740.44;;;14.32;96.94
49813;BME280;35706;52.100;5.056;2023-09-19T05:20:58;100733.69;;;14.46;96.86
49813;BME280;35706;52.100;5.056;2023-09-19T05:21:58;100743.78;;;14.42;96.58
49813;BME280;35706;52.100;5.056;2023-09-19T05:23:06;100744.78;;;14.41;97.15
49813;BME280;35706;52.100;5.056;2023-09-19T05:24:09;100737.31;;;14.37;97.14
49813;BME280;35706;52.100;5.056;2023-09-19T05:25:10;100731.06;;;14.38;97.56
49813;BME280;35706;52.100;5.056;2023-09-19T05:26:11;100733.00;;;14.28;97.72
49813;BME280;35706;52.100;5.056;2023-09-19T05:27:12;100732.88;;;14.37;97.83
49813;BME280;35706;52.100;5.056;2023-09-19T05:28:12;100739.13;;;14.28;97.69
49813;BME280;35706;52.100;5.056;2023-09-19T05:29:15;100732.88;;;14.37;97.45
49813;BME280;35706;52.100;5.056;2023-09-19T05:30:15;100729.38;;;14.37;97.54
49813;BME280;35706;52.100;5.056;2023-09-19T05:31:16;100724.44;;;14.42;97.52
49813;BME280;35706;52.100;5.056;2023-09-19T05:32:16;100727.41;;;14.39;97.61
49813;BME280;35706;52.100;5.056;2023-09-19T05:33:19;100732.88;;;14.37;97.82
49813;BME280;35706;52.100;5.056;2023-09-19T05:34:20;100735.66;;;14.36;98.19
49813;BME280;35706;52.100;5.056;2023-09-19T05:35:20;100737.81;;;14.40;98.03